Time;durP1;ratioP1;P1;durP2;ratioP2;P2;SDS_P1;SDS_P2;PMS_P1;PMS_P2;Temp;Humidity;BMP_temperature;BMP_pressure;BME280_temperature;BME280_humidity;BME280_pressure;Samples;Min_cycle;Max_cycle;Signal;HPM_P1;HPM_P2
2023/06/24 00:01:02;;;;;;;6.90;4.57;;;16.50;91.30;;;;;;5049234;28;20029;-76
2023/06/24 00:03:28;;;;;;;7.22;4.80;;;16.30;99.50;;;;;;5050138;28;20033;-77
2023/06/24 00:05:56;;;;;;;6.15;4.32;;;16.40;99.90;;;;;;5046672;28;20037;-76
2023/06/24 00:08:23;;;;;;;5.75;4.35;;;16.30;99.90;;;;;;5048860;28;20040;-77
2023/06/24 00:10:50;;;;;;;5.28;4.07;;;16.20;99.90;;;;;;5049614;28;20044;-86
2023/06/24 00:13:17;;;;;;;7.00;4.57;;;16.10;99.90;;;;;;5050509;28;20032;-77
2023/06/24 00:15:43;;;;;;;6.90;4.53;;;16.00;99.90;;;;;;5051811;28;20029;-77
2023/06/24 00:18:10;;;;;;;6.18;4.57;;;16.10;99.90;;;;;;5049742;28;20033;-80
2023/06/24 00:20:36;;;;;;;5.53;4.43;;;16.10;99.90;;;;;;5049280;28;20888;-76
2023/06/24 00:23:03;;;;;;;6.55;5.00;;;15.90;99.90;;;;;;5039614;28;20025;-76
2023/06/24 00:25:32;;;;;;;7.35;5.07;;;15.80;99.90;;;;;;5047990;28;20125;-76
2023/06/24 00:27:58;;;;;;;7.40;4.80;;;15.60;99.90;;;;;;5047213;28;20044;-77
2023/06/24 00:30:25;;;;;;;6.00;4.50;;;15.50;99.90;;;;;;5044661;28;20048;-77
2023/06/24 00:32:52;;;;;;;7.03;4.65;;;15.30;99.90;;;;;;5046749;28;20028;-82
2023/06/24 00:35:18;;;;;;;6.75;5.05;;;15.20;99.90;;;;;;5038563;28;20026;-77
2023/06/24 00:37:45;;;;;;;6.38;4.88;;;15.20;99.90;;;;;;5034834;28;20045;-77
2023/06/24 00:40:14;;;;;;;6.95;4.50;;;15.20;99.90;;;;;;5028815;28;20121;-77
2023/06/24 00:42:44;;;;;;;7.88;5.13;;;15.20;99.90;;;;;;5047379;28;20042;-76
2023/06/24 00:45:11;;;;;;;5.72;4.63;;;15.00;99.90;;;;;;5049109;28;20300;-77
2023/06/24 00:47:39;;;;;;;7.07;5.55;;;15.00;99.90;;;;;;5050624;28;20041;-79
2023/06/24 00:50:06;;;;;;;7.97;5.28;;;15.00;99.90;;;;;;5055134;28;20396;-77
2023/06/24 00:52:33;;;;;;;6.07;4.88;;;15.00;99.90;;;;;;5065869;28;20045;-77
2023/06/24 00:55:01;;;;;;;6.32;5.15;;;15.20;99.90;;;;;;5046748;28;20033;-76
2023/06/24 00:57:28;;;;;;;9.13;5.80;;;15.20;99.90;;;;;;5033912;28;20059;-77
2023/06/24 00:59:56;;;;;;;6.78;5.30;;;15.00;99.90;;;;;;5048965;28;20041;-76
2023/06/24 01:02:27;;;;;;;6.38;5.28;;;14.80;99.90;;;;;;5046732;28;20053;-80
2023/06/24 01:04:54;;;;;;;;;;;14.80;99.90;;;;;;5051028;28;20025;-81
2023/06/24 01:07:20;;;;;;;7.18;5.43;;;14.70;99.90;;;;;;5048417;28;19905;-77
2023/06/24 01:09:47;;;;;;;7.95;5.35;;;14.60;99.90;;;;;;5051702;28;20471;-77
2023/06/24 01:12:13;;;;;;;8.18;6.10;;;14.50;99.90;;;;;;5048181;28;20037;-78
2023/06/24 01:14:39;;;;;;;6.40;5.05;;;14.50;99.90;;;;;;5046295;28;20041;-79
2023/06/24 01:17:15;;;;;;;6.70;5.35;;;14.40;99.90;;;;;;5048789;28;20029;-76
2023/06/24 01:20:10;;;;;;;8.75;5.68;;;14.40;99.90;;;;;;5041898;28;20133;-80
2023/06/24 01:23:20;;;;;;;7.38;5.68;;;14.30;99.90;;;;;;5045210;28;20037;-78
2023/06/24 01:26:20;;;;;;;5.93;5.05;;;14.30;99.90;;;;;;5050117;28;20029;-77
2023/06/24 01:29:25;;;;;;;7.22;6.03;;;14.40;99.90;;;;;;5047201;28;20456;-79
2023/06/24 01:32:11;;;;;;;7.57;6.05;;;14.30;99.90;;;;;;4949529;28;20118;-77
2023/06/24 01:35:20;;;;;;;8.07;6.07;;;14.20;99.90;;;;;;4949938;29;20390;-78
2023/06/24 01:37:51;;;;;;;7.85;6.03;;;14.20;99.90;;;;;;5032526;28;20379;-77
2023/06/24 01:40:47;;;;;;;9.02;6.13;;;14.10;99.90;;;;;;5050720;28;20041;-78
2023/06/24 01:43:16;;;;;;;8.18;6.03;;;14.10;99.90;;;;;;5016732;28;20044;-76
2023/06/24 01:45:49;;;;;;;7.00;5.57;;;14.10;99.90;;;;;;5033658;28;20424;-77
2023/06/24 01:48:22;;;;;;;7.97;6.07;;;14.10;99.90;;;;;;5046796;28;20041;-77
2023/06/24 01:51:00;;;;;;;6.40;5.40;;;14.20;99.90;;;;;;5043508;28;20045;-76
2023/06/24 01:53:28;;;;;;;7.60;6.07;;;14.20;99.90;;;;;;5048859;28;20041;-77
2023/06/24 01:55:58;;;;;;;7.05;5.82;;;14.20;99.90;;;;;;5032804;28;20041;-77
2023/06/24 01:58:24;;;;;;;13.85;6.00;;;14.10;99.90;;;;;;5015450;28;20051;-76
2023/06/24 02:00:53;;;;;;;6.88;5.20;;;14.20;99.90;;;;;;5025938;28;20048;-79
2023/06/24 02:03:21;;;;;;;8.48;5.50;;;14.30;99.90;;;;;;4942640;29;20039;-75
2023/06/24 02:05:48;;;;;;;7.28;5.68;;;14.30;99.90;;;;;;5016677;28;20048;-76
2023/06/24 02:08:15;;;;;;;10.77;6.43;;;14.20;99.90;;;;;;4949670;29;20441;-76
2023/06/24 02:10:43;;;;;;;7.90;6.43;;;14.10;99.90;;;;;;4943683;29;20042;-76
2023/06/24 02:13:11;;;;;;;7.70;6.45;;;14.10;99.90;;;;;;4946732;28;20048;-76
2023/06/24 02:15:39;;;;;;;9.32;6.70;;;14.20;99.90;;;;;;4949043;29;20035;-76
2023/06/24 02:18:09;;;;;;;8.32;5.93;;;14.30;99.90;;;;;;4947370;28;20395;-76
2023/06/24 02:20:38;;;;;;;8.00;6.77;;;14.30;99.90;;;;;;4949012;28;20047;-77
2023/06/24 02:23:08;;;;;;;8.07;6.03;;;14.20;99.90;;;;;;4945267;29;20039;-77
2023/06/24 02:25:36;;;;;;;10.20;6.20;;;14.10;99.90;;;;;;5014779;28;20486;-79
2023/06/24 02:28:02;;;;;;;6.85;5.22;;;14.00;99.90;;;;;;4948401;28;20474;-77
2023/06/24 02:30:29;;;;;;;7.93;6.78;;;14.00;99.90;;;;;;4946501;29;20470;-77
2023/06/24 02:32:56;;;;;;;9.75;6.47;;;13.90;99.90;;;;;;4945012;29;20042;-81
2023/06/24 02:35:22;;;;;;;8.02;6.32;;;13.90;99.90;;;;;;4943603;29;20142;-76
2023/06/24 02:37:48;;;;;;;7.38;5.90;;;14.00;99.90;;;;;;4945818;29;20042;-85
2023/06/24 02:40:16;;;;;;;9.77;6.88;;;14.00;99.90;;;;;;5001798;28;20062;-77
2023/06/24 02:42:43;;;;;;;6.90;6.20;;;13.90;99.90;;;;;;4936739;29;20062;-76
2023/06/24 02:45:09;;;;;;;8.05;6.43;;;13.80;99.90;;;;;;5016092;28;20047;-76
2023/06/24 02:47:37;;;;;;;6.90;5.32;;;13.80;99.90;;;;;;4947536;29;20035;-76
2023/06/24 02:50:07;;;;;;;6.57;5.35;;;13.80;99.90;;;;;;5045586;28;20058;-76
2023/06/24 02:52:36;;;;;;;7.85;5.93;;;13.80;99.90;;;;;;5014879;28;20039;-76
2023/06/24 02:55:04;;;;;;;7.63;5.70;;;13.90;99.90;;;;;;5013933;28;20043;-76
2023/06/24 02:57:40;;;;;;;7.55;6.20;;;14.10;99.90;;;;;;4957180;28;20046;-76
2023/06/24 03:00:13;;;;;;;7.28;5.97;;;14.20;99.90;;;;;;5046540;28;20039;-76
2023/06/24 03:03:01;;;;;;;9.45;7.10;;;14.10;99.90;;;;;;5043093;28;20037;-77
2023/06/24 03:05:30;;;;;;;8.38;6.22;;;14.00;99.90;;;;;;5044564;28;20384;-75
2023/06/24 03:07:57;;;;;;;6.70;5.85;;;13.80;99.90;;;;;;5048810;28;20054;-81
2023/06/24 03:10:25;;;;;;;6.63;5.63;;;13.80;99.90;;;;;;5030938;28;20048;-76
2023/06/24 03:12:52;;;;;;;6.45;5.40;;;13.70;99.90;;;;;;5028197;28;20478;-76
2023/06/24 03:15:20;;;;;;;7.05;6.03;;;13.70;99.90;;;;;;5032195;28;20048;-76
2023/06/24 03:17:46;;;;;;;8.10;6.05;;;13.80;99.90;;;;;;5063476;28;20090;-77
2023/06/24 03:20:13;;;;;;;9.15;5.85;;;13.90;99.90;;;;;;5046220;28;20491;-79
2023/06/24 03:22:39;;;;;;;7.32;6.00;;;14.00;99.90;;;;;;5062312;28;20467;-77
2023/06/24 03:25:10;;;;;;;8.23;5.68;;;14.10;99.90;;;;;;5061591;28;20396;-77
2023/06/24 03:27:36;;;;;;;7.38;6.40;;;14.20;99.90;;;;;;5060431;28;20045;-76
2023/06/24 03:30:03;;;;;;;7.28;6.40;;;14.20;99.90;;;;;;5062548;28;20041;-76
2023/06/24 03:32:36;;;;;;;7.95;5.88;;;14.10;99.90;;;;;;5030176;28;20396;-77
2023/06/24 03:35:03;;;;;;;9.85;5.28;;;14.20;99.90;;;;;;5058654;28;20049;-76
2023/06/24 03:37:29;;;;;;;6.93;5.82;;;14.10;99.90;;;;;;5039882;28;20044;-78
2023/06/24 03:39:56;;;;;;;7.32;6.15;;;14.20;99.90;;;;;;5034019;28;20056;-79
2023/06/24 03:42:23;;;;;;;7.03;6.03;;;14.40;99.90;;;;;;5032828;28;20045;-79
2023/06/24 03:44:49;;;;;;;9.55;5.75;;;14.50;99.90;;;;;;5051852;28;20033;-80
2023/06/24 03:47:16;;;;;;;6.70;5.50;;;14.40;99.90;;;;;;5045438;28;20367;-78
2023/06/24 03:49:42;;;;;;;7.43;5.28;;;14.30;99.90;;;;;;5052570;28;20395;-78
2023/06/24 03:52:08;;;;;;;8.13;5.80;;;14.30;99.90;;;;;;5058297;28;20048;-78
2023/06/24 03:54:35;;;;;;;7.18;5.60;;;14.20;99.90;;;;;;5064265;28;20037;-76
2023/06/24 03:57:01;;;;;;;6.60;5.78;;;14.20;99.90;;;;;;5068848;28;20423;-76
2023/06/24 03:59:28;;;;;;;5.85;5.03;;;14.20;99.90;;;;;;5045933;28;20480;-77
2023/06/24 04:01:56;;;;;;;7.65;5.78;;;14.10;99.90;;;;;;5033520;28;20048;-85
2023/06/24 04:04:23;;;;;;;6.85;5.65;;;14.20;99.90;;;;;;5046403;28;20048;-77
2023/06/24 04:06:49;;;;;;;7.65;5.85;;;14.20;99.90;;;;;;5050729;28;20383;-77
2023/06/24 04:09:15;;;;;;;9.13;6.53;;;14.30;99.90;;;;;;5033232;28;20402;-77
2023/06/24 04:11:41;;;;;;;6.55;5.53;;;14.30;99.90;;;;;;5052209;28;20357;-77
2023/06/24 04:14:09;;;;;;;6.30;5.25;;;14.40;99.90;;;;;;5033204;28;20041;-76
2023/06/24 04:16:36;;;;;;;7.90;5.30;;;14.50;99.90;;;;;;5035400;28;20048;-78
2023/06/24 04:19:02;;;;;;;6.70;5.38;;;14.60;99.90;;;;;;5029435;28;20064;-77
2023/06/24 04:21:28;;;;;;;7.13;5.47;;;15.00;99.90;;;;;;5049137;28;20076;-81
2023/06/24 04:23:55;;;;;;;7.03;4.90;;;15.90;99.90;;;;;;5064184;28;20049;-79
2023/06/24 04:26:21;;;;;;;5.93;4.43;;;16.50;99.90;;;;;;5038797;28;20484;-78
2023/06/24 04:28:48;;;;;;;5.95;4.55;;;17.00;98.30;;;;;;5064104;28;20048;-79
2023/06/24 04:31:14;;;;;;;7.78;4.40;;;17.40;65.00;;;;;;5031408;28;20044;-78
2023/06/24 04:33:40;;;;;;;6.55;4.35;;;17.80;29.60;;;;;;5065412;28;20044;-79
2023/06/24 04:36:07;;;;;;;4.85;3.92;;;18.00;12.90;;;;;;5038547;28;20045;-79
2023/06/24 04:38:33;;;;;;;6.78;4.78;;;18.40;1.00;;;;;;5049801;28;20057;-79
2023/06/24 04:41:01;;;;;;;7.10;4.55;;;18.50;1.00;;;;;;5065777;28;20037;-79
2023/06/24 04:43:28;;;;;;;5.13;4.20;;;18.60;1.00;;;;;;5046431;28;20036;-78
2023/06/24 04:45:58;;;;;;;5.82;4.45;;;18.90;1.00;;;;;;5050418;28;20043;-78
2023/06/24 04:48:24;;;;;;;;;;;19.30;1.00;;;;;;5044609;28;20044;-77
2023/06/24 04:50:50;;;;;;;5.60;4.38;;;19.60;1.00;;;;;;5049549;28;19987;-77
2023/06/24 04:53:17;;;;;;;6.90;4.28;;;19.80;1.00;;;;;;5047111;28;20029;-76
2023/06/24 04:55:43;;;;;;;5.53;4.20;;;20.60;1.00;;;;;;5031860;28;20418;-78
2023/06/24 04:58:09;;;;;;;5.93;3.75;;;21.40;1.00;;;;;;5046376;28;20053;-77
2023/06/24 05:00:35;;;;;;;5.63;4.35;;;21.40;99.90;;;;;;5050470;28;20029;-77
2023/06/24 05:03:02;;;;;;;6.18;4.93;;;21.10;99.90;;;;;;5046436;28;20033;-84
2023/06/24 05:05:28;;;;;;;5.88;5.20;;;20.80;1.00;;;;;;5050055;28;20049;-78
2023/06/24 05:07:54;;;;;;;5.47;4.28;;;20.70;1.00;;;;;;5048843;28;20045;-76
2023/06/24 05:10:20;;;;;;;6.30;4.38;;;21.00;1.00;;;;;;5049173;28;20076;-77
2023/06/24 05:12:46;;;;;;;7.13;4.38;;;22.10;99.90;;;;;;5038998;28;20057;-77
2023/06/24 05:15:12;;;;;;;4.30;3.90;;;23.00;99.90;;;;;;5051060;28;20115;-77
2023/06/24 05:17:40;;;;;;;7.25;4.68;;;23.20;99.90;;;;;;5042847;28;20040;-78
2023/06/24 05:20:07;;;;;;;4.07;3.58;;;23.70;99.90;;;;;;5056555;28;20738;-82
2023/06/24 05:22:33;;;;;;;7.32;4.40;;;23.80;99.90;;;;;;5030973;28;20459;-77
2023/06/24 05:24:59;;;;;;;4.72;4.20;;;23.50;99.90;;;;;;5047144;28;20029;-77
2023/06/24 05:27:25;;;;;;;4.25;3.80;;;23.50;99.90;;;;;;5046777;28;20032;-76
2023/06/24 05:29:51;;;;;;;4.93;3.55;;;23.30;99.90;;;;;;5046288;28;20045;-77
2023/06/24 05:32:19;;;;;;;5.72;3.92;;;23.20;99.90;;;;;;5046714;28;20025;-77
2023/06/24 05:34:46;;;;;;;5.03;4.10;;;23.10;99.90;;;;;;5049213;28;20056;-77
2023/06/24 05:37:13;;;;;;;4.50;3.58;;;23.10;99.90;;;;;;5047061;28;20043;-78
2023/06/24 05:39:40;;;;;;;5.32;4.35;;;23.30;99.90;;;;;;5050455;28;20052;-76
2023/06/24 05:42:06;;;;;;;4.70;4.18;;;23.20;99.90;;;;;;5047150;28;20033;-77
2023/06/24 05:44:33;;;;;;;6.57;4.05;;;23.00;99.90;;;;;;5044718;28;20036;-77
2023/06/24 05:47:02;;;;;;;5.07;3.90;;;23.40;99.90;;;;;;5047542;28;20029;-89
2023/06/24 05:49:28;;;;;;;5.47;4.22;;;23.90;99.90;;;;;;5046489;28;20025;-79
2023/06/24 05:51:54;;;;;;;6.85;4.35;;;24.30;99.90;;;;;;5060698;28;20044;-79
2023/06/24 05:54:20;;;;;;;9.88;4.10;;;24.20;99.90;;;;;;5057070;28;20048;-78
2023/06/24 05:56:46;;;;;;;5.53;4.32;;;23.80;99.90;;;;;;5048234;28;20036;-79
2023/06/24 05:59:13;;;;;;;8.02;3.92;;;23.90;99.90;;;;;;5037708;28;20041;-80
2023/06/24 06:01:39;;;;;;;4.65;3.55;;;24.10;99.90;;;;;;5034113;28;20035;-80
2023/06/24 06:04:06;;;;;;;4.05;3.00;;;24.30;99.90;;;;;;5047673;28;20147;-83
2023/06/24 06:06:32;;;;;;;7.00;4.05;;;23.70;99.90;;;;;;5047966;28;20383;-79
2023/06/24 06:08:59;;;;;;;5.85;3.60;;;23.00;99.90;;;;;;5047813;28;20048;-79
2023/06/24 06:11:25;;;;;;;9.05;4.30;;;22.60;99.90;;;;;;5046894;28;20030;-78
2023/06/24 06:13:52;;;;;;;7.15;4.47;;;22.50;99.90;;;;;;5048525;28;20371;-79
2023/06/24 06:16:18;;;;;;;6.25;4.10;;;22.30;99.90;;;;;;5046583;28;20448;-78
2023/06/24 06:18:44;;;;;;;5.13;4.03;;;22.30;99.90;;;;;;5046140;28;20033;-78
2023/06/24 06:21:10;;;;;;;6.22;4.72;;;23.00;99.90;;;;;;5038798;28;20033;-78
2023/06/24 06:23:37;;;;;;;7.45;4.85;;;22.70;99.90;;;;;;5046883;28;20040;-78
2023/06/24 06:26:03;;;;;;;9.32;5.30;;;22.40;99.90;;;;;;5047883;28;20033;-84
2023/06/24 06:28:29;;;;;;;8.07;4.55;;;22.50;99.90;;;;;;5045204;28;20036;-79
2023/06/24 06:30:56;;;;;;;5.85;4.50;;;22.80;99.90;;;;;;5046209;28;20028;-78
2023/06/24 06:33:23;;;;;;;6.20;4.82;;;23.00;99.90;;;;;;5043551;28;20045;-79
2023/06/24 06:35:49;;;;;;;5.10;3.92;;;23.60;99.90;;;;;;5049078;28;20029;-78
2023/06/24 06:38:15;;;;;;;5.78;4.20;;;23.70;99.90;;;;;;5047213;28;20055;-79
2023/06/24 06:40:41;;;;;;;6.57;4.68;;;23.40;99.90;;;;;;5047388;28;20037;-80
2023/06/24 06:43:07;;;;;;;5.82;4.40;;;23.10;99.90;;;;;;5045115;28;20029;-79
2023/06/24 06:45:34;;;;;;;7.20;4.20;;;23.20;99.90;;;;;;5063247;28;20041;-79
2023/06/24 06:48:00;;;;;;;5.00;4.50;;;23.20;99.90;;;;;;5024578;28;20033;-76
2023/06/24 06:50:26;;;;;;;4.72;3.75;;;23.90;99.90;;;;;;5032645;28;20048;-75
2023/06/24 06:52:52;;;;;;;8.70;5.30;;;24.90;99.90;;;;;;5040739;28;20108;-79
2023/06/24 06:55:19;;;;;;;5.70;4.65;;;25.40;99.90;;;;;;5047264;28;20025;-78
2023/06/24 06:57:45;;;;;;;5.43;4.07;;;24.30;99.90;;;;;;5051824;28;20030;-78
2023/06/24 07:00:11;;;;;;;5.32;4.40;;;23.60;99.90;;;;;;5048201;28;20033;-80
2023/06/24 07:02:38;;;;;;;5.32;4.75;;;23.90;99.90;;;;;;5046857;28;20052;-80
2023/06/24 07:05:04;;;;;;;4.78;4.32;;;24.60;99.90;;;;;;5047415;28;20044;-80
2023/06/24 07:07:30;;;;;;;6.05;5.03;;;24.30;99.90;;;;;;5031688;28;20037;-80
2023/06/24 07:09:56;;;;;;;5.72;3.95;;;23.80;99.90;;;;;;5047518;28;20048;-79
2023/06/24 07:12:23;;;;;;;6.35;4.43;;;23.60;99.90;;;;;;5058566;28;20408;-78
2023/06/24 07:14:50;;;;;;;9.45;5.57;;;24.20;99.90;;;;;;5043423;28;20037;-79
2023/06/24 07:17:17;;;;;;;6.40;4.97;;;24.90;99.90;;;;;;5022030;28;20046;-79
2023/06/24 07:19:43;;;;;;;5.78;5.05;;;24.30;99.90;;;;;;5039679;28;20041;-79
2023/06/24 07:22:09;;;;;;;9.02;4.88;;;23.90;99.90;;;;;;5031318;28;20044;-83
2023/06/24 07:24:35;;;;;;;8.15;5.35;;;24.10;99.90;;;;;;5045190;28;20057;-79
2023/06/24 07:27:01;;;;;;;8.05;5.18;;;25.00;99.90;;;;;;5052220;28;20051;-80
2023/06/24 07:29:28;;;;;;;6.20;4.80;;;24.30;99.90;;;;;;5051969;28;20041;-77
2023/06/24 07:31:54;;;;;;;5.38;4.38;;;24.70;99.90;;;;;;5049037;28;20040;-78
2023/06/24 07:34:20;;;;;;;7.95;5.00;;;24.70;99.90;;;;;;5053994;28;20033;-77
2023/06/24 07:36:46;;;;;;;7.90;4.43;;;26.40;99.90;;;;;;5047263;28;20029;-78
2023/06/24 07:39:12;;;;;;;7.78;5.18;;;26.70;99.90;;;;;;5051781;28;20048;-79
2023/06/24 07:41:39;;;;;;;6.82;4.68;;;26.10;99.90;;;;;;5046186;28;20491;-77
2023/06/24 07:44:05;;;;;;;11.25;5.65;;;25.80;99.90;;;;;;5050884;28;20025;-89
2023/06/24 07:46:31;;;;;;;8.50;5.03;;;25.20;99.90;;;;;;5049864;28;20033;-78
2023/06/24 07:48:57;;;;;;;8.77;5.07;;;26.00;99.90;;;;;;5047941;28;20040;-78
2023/06/24 07:51:23;;;;;;;5.55;4.45;;;25.80;99.90;;;;;;5047143;28;20037;-77
2023/06/24 07:53:50;;;;;;;5.50;4.15;;;26.10;99.90;;;;;;5052071;28;20040;-76
2023/06/24 07:56:16;;;;;;;6.07;4.55;;;27.10;99.90;;;;;;5050129;28;20033;-79
2023/06/24 07:58:45;;;;;;;7.90;4.20;;;26.60;99.90;;;;;;5051500;28;20041;-75
2023/06/24 08:01:11;;;;;;;5.03;3.55;;;26.60;99.90;;;;;;5046794;28;20025;-75
2023/06/24 08:03:37;;;;;;;7.05;4.72;;;26.80;99.90;;;;;;5052461;28;20048;-74
2023/06/24 08:06:03;;;;;;;5.80;4.50;;;27.20;99.90;;;;;;5047715;28;20044;-76
2023/06/24 08:08:30;;;;;;;6.40;3.88;;;27.20;99.90;;;;;;5048044;28;20049;-76
2023/06/24 08:10:56;;;;;;;5.20;4.03;;;27.70;99.90;;;;;;5034311;28;20048;-78
2023/06/24 08:13:22;;;;;;;16.77;5.07;;;26.80;99.90;;;;;;5047666;28;20087;-76
2023/06/24 08:15:48;;;;;;;6.43;4.25;;;26.50;99.90;;;;;;5050350;28;20036;-76
2023/06/24 08:18:14;;;;;;;4.32;3.50;;;26.40;99.90;;;;;;5046548;28;20041;-74
2023/06/24 08:20:41;;;;;;;7.38;4.10;;;26.70;99.90;;;;;;5029268;28;20040;-79
2023/06/24 08:23:09;;;;;;;4.90;4.00;;;26.90;99.90;;;;;;5062394;28;20048;-82
2023/06/24 08:25:35;;;;;;;4.22;3.50;;;27.00;99.90;;;;;;5051935;28;20051;-74
2023/06/24 08:28:02;;;;;;;6.35;3.85;;;27.20;99.90;;;;;;5048331;28;20044;-76
2023/06/24 08:30:28;;;;;;;5.53;3.33;;;27.30;99.90;;;;;;5049925;28;20036;-74
2023/06/24 08:32:56;;;;;;;3.13;2.70;;;27.90;99.90;;;;;;5048948;28;20471;-74
2023/06/24 08:35:22;;;;;;;4.57;3.35;;;28.50;99.90;;;;;;5050825;28;20028;-77
2023/06/24 08:37:48;;;;;;;5.60;3.53;;;29.10;99.90;;;;;;5048115;28;20032;-77
2023/06/24 08:40:14;;;;;;;4.10;2.70;;;29.30;93.20;;;;;;5050167;28;20068;-74
2023/06/24 08:42:42;;;;;;;5.35;3.38;;;28.50;99.90;;;;;;5048906;28;20048;-74
2023/06/24 08:45:09;;;;;;;4.53;2.80;;;28.60;99.90;;;;;;5050374;28;20064;-83
2023/06/24 08:47:36;;;;;;;3.95;3.22;;;28.80;91.40;;;;;;5025697;28;20040;-76
2023/06/24 08:50:07;;;;;;;7.63;3.30;;;28.00;92.60;;;;;;5050158;28;20029;-75
2023/06/24 08:52:36;;;;;;;4.72;3.03;;;27.90;99.90;;;;;;5050051;28;20523;-76
2023/06/24 08:55:04;;;;;;;;;;;28.30;87.00;;;;;;5049018;28;20040;-78
2023/06/24 08:57:30;;;;;;;4.95;2.78;;;26.30;99.90;;;;;;5050089;28;20319;-75
2023/06/24 08:59:57;;;;;;;5.18;2.70;;;26.60;99.90;;;;;;5045580;28;20036;-77
2023/06/24 09:02:23;;;;;;;4.18;2.53;;;27.30;97.00;;;;;;5042452;28;20344;-77
2023/06/24 09:04:51;;;;;;;6.65;3.22;;;27.10;99.90;;;;;;5041854;28;20063;-77
2023/06/24 09:07:30;;;;;;;2.97;2.67;;;26.80;99.90;;;;;;5048102;28;20040;-76
2023/06/24 09:09:56;;;;;;;4.40;3.20;;;27.30;99.90;;;;;;5049181;28;20037;-77
2023/06/24 09:12:24;;;;;;;3.45;2.58;;;28.50;82.00;;;;;;5047638;28;20324;-75
2023/06/24 09:14:51;;;;;;;3.20;2.60;;;28.80;74.40;;;;;;5045896;28;20044;-74
2023/06/24 09:17:21;;;;;;;5.53;3.58;;;28.90;69.60;;;;;;5048401;28;20036;-75
2023/06/24 09:19:49;;;;;;;3.38;2.67;;;28.50;87.30;;;;;;5049124;28;20033;-76
2023/06/24 09:22:18;;;;;;;5.03;3.30;;;29.20;83.00;;;;;;5033387;28;20045;-73
2023/06/24 09:24:48;;;;;;;;;;;29.40;49.90;;;;;;5048638;28;20036;-78
2023/06/24 09:27:16;;;;;;;5.20;3.40;;;28.00;76.30;;;;;;5046537;28;19913;-76
2023/06/24 09:29:43;;;;;;;3.97;3.08;;;26.60;99.90;;;;;;5049162;28;20049;-76
2023/06/24 09:32:09;;;;;;;3.42;2.80;;;27.20;99.90;;;;;;5049182;28;20488;-75
2023/06/24 09:34:36;;;;;;;5.85;3.40;;;28.10;94.20;;;;;;5030334;28;20029;-76
2023/06/24 09:37:02;;;;;;;4.40;3.05;;;28.30;79.30;;;;;;5048273;28;20033;-77
2023/06/24 09:39:35;;;;;;;5.60;3.45;;;28.70;69.80;;;;;;5050789;28;20033;-77
2023/06/24 09:42:04;;;;;;;3.75;3.03;;;29.30;67.40;;;;;;5046211;28;20033;-77
2023/06/24 09:44:30;;;;;;;4.40;3.15;;;29.70;49.90;;;;;;5046939;28;20037;-79
2023/06/24 09:46:57;;;;;;;3.75;3.20;;;28.40;61.90;;;;;;5035900;28;20036;-77
2023/06/24 09:49:23;;;;;;;4.05;2.95;;;27.90;83.20;;;;;;5043029;28;20389;-74
2023/06/24 09:51:56;;;;;;;3.45;2.60;;;28.30;73.30;;;;;;5045240;28;20464;-77
2023/06/24 09:54:28;;;;;;;5.47;3.35;;;27.30;93.40;;;;;;5047958;28;20034;-77
2023/06/24 09:56:56;;;;;;;6.18;2.95;;;27.40;95.50;;;;;;5042375;28;20127;-77
2023/06/24 09:59:24;;;;;;;4.22;2.95;;;28.30;88.00;;;;;;5047033;28;20050;-79
2023/06/24 10:01:53;;;;;;;6.75;2.67;;;27.90;76.40;;;;;;5045413;28;20036;-78
2023/06/24 10:04:21;;;;;;;3.43;2.60;;;27.40;93.10;;;;;;5046089;28;20551;-77
2023/06/24 10:06:48;;;;;;;3.28;2.58;;;28.10;94.50;;;;;;5047878;28;20041;-77
2023/06/24 10:09:16;;;;;;;5.05;3.35;;;28.50;69.90;;;;;;5047838;28;20484;-89
2023/06/24 10:11:47;;;;;;;3.60;2.63;;;28.50;60.40;;;;;;5045306;28;20040;-79
2023/06/24 10:14:15;;;;;;;3.50;2.80;;;27.90;80.30;;;;;;5046149;28;20100;-82
2023/06/24 10:16:42;;;;;;;4.95;2.78;;;28.50;83.90;;;;;;5044087;28;20043;-74
2023/06/24 10:19:09;;;;;;;3.25;2.45;;;29.20;59.90;;;;;;5048166;28;20500;-74
2023/06/24 10:22:07;;;;;;;3.45;2.25;;;29.20;49.50;;;;;;5034055;28;20511;-77
2023/06/24 10:24:35;;;;;;;5.22;3.03;;;28.70;62.80;;;;;;5027270;28;20091;-74
2023/06/24 10:27:13;;;;;;;3.67;2.70;;;28.40;60.90;;;;;;5047779;28;20033;-76
2023/06/24 10:29:39;;;;;;;3.05;2.65;;;28.10;66.60;;;;;;5048807;28;20040;-79
2023/06/24 10:32:09;;;;;;;3.03;2.40;;;27.70;73.70;;;;;;5043062;28;20029;-77
2023/06/24 10:34:40;;;;;;;5.28;2.88;;;27.90;88.50;;;;;;5046240;28;20021;-77
2023/06/24 10:37:38;;;;;;;3.38;2.58;;;27.70;80.70;;;;;;5042704;28;20040;-78
2023/06/24 10:40:05;;;;;;;4.70;3.40;;;26.90;90.10;;;;;;5001841;28;20053;-76
2023/06/24 10:42:47;;;;;;;4.68;3.78;;;26.30;99.90;;;;;;5049989;28;20388;-78
2023/06/24 10:45:16;;;;;;;4.65;2.80;;;26.20;99.90;;;;;;5038341;28;20092;-75
2023/06/24 10:47:44;;;;;;;4.68;2.70;;;26.20;99.90;;;;;;5047422;28;20045;-75
2023/06/24 10:50:13;;;;;;;5.22;3.28;;;26.40;99.90;;;;;;5044077;28;20044;-75
2023/06/24 10:52:43;;;;;;;3.60;3.15;;;26.70;97.50;;;;;;5043340;28;20033;-75
2023/06/24 10:55:10;;;;;;;3.20;2.83;;;26.80;92.50;;;;;;5050529;28;20037;-75
2023/06/24 10:57:36;;;;;;;6.13;3.33;;;27.10;94.90;;;;;;5052403;28;20276;-78
2023/06/24 11:00:03;;;;;;;3.67;2.72;;;27.20;92.30;;;;;;5052803;28;20040;-78
2023/06/24 11:02:30;;;;;;;4.80;3.53;;;26.90;96.50;;;;;;5050192;28;20045;-75
2023/06/24 11:04:58;;;;;;;3.42;2.53;;;27.00;94.90;;;;;;5044597;28;20036;-88
2023/06/24 11:07:30;;;;;;;4.25;2.95;;;27.20;95.60;;;;;;5048007;28;20029;-76
2023/06/24 11:10:00;;;;;;;4.50;3.30;;;27.10;83.90;;;;;;5052263;28;20044;-75
2023/06/24 11:12:34;;;;;;;5.32;3.78;;;26.80;85.10;;;;;;5055347;28;20032;-79
2023/06/24 11:15:08;;;;;;;3.75;3.08;;;26.60;93.10;;;;;;5055509;28;20036;-78
2023/06/24 11:17:35;;;;;;;3.83;2.75;;;26.90;90.90;;;;;;5053976;28;20052;-78
2023/06/24 11:20:05;;;;;;;6.95;3.38;;;27.30;86.20;;;;;;5051008;28;20041;-76
2023/06/24 11:22:32;;;;;;;5.85;3.17;;;28.00;75.20;;;;;;5052791;28;20474;-78
2023/06/24 11:24:58;;;;;;;3.58;2.60;;;27.70;59.60;;;;;;5049865;28;20049;-78
2023/06/24 11:27:29;;;;;;;4.20;2.75;;;27.40;69.20;;;;;;5049384;28;20040;-77
2023/06/24 11:30:02;;;;;;;4.57;2.65;;;27.70;83.80;;;;;;5054592;28;20038;-77
2023/06/24 11:32:44;;;;;;;5.57;2.85;;;28.30;66.10;;;;;;5055772;28;20033;-78
2023/06/24 11:35:17;;;;;;;3.22;2.90;;;28.20;57.10;;;;;;5054452;28;20531;-81
2023/06/24 11:37:48;;;;;;;3.92;2.75;;;28.40;49.70;;;;;;5048823;28;20025;-78
2023/06/24 11:40:18;;;;;;;3.83;3.03;;;28.10;59.20;;;;;;5053749;28;20729;-77
2023/06/24 11:42:44;;;;;;;3.42;2.60;;;27.90;58.50;;;;;;5048279;28;20037;-77
2023/06/24 11:45:12;;;;;;;3.38;2.80;;;27.70;51.70;;;;;;5054181;28;20029;-76
2023/06/24 11:47:39;;;;;;;3.75;2.90;;;27.60;50.60;;;;;;5054198;28;20033;-74
2023/06/24 11:50:07;;;;;;;5.90;3.13;;;27.70;49.20;;;;;;5051196;28;20064;-76
2023/06/24 11:52:45;;;;;;;3.92;2.85;;;27.80;39.90;;;;;;5046332;28;20059;-76
2023/06/24 11:55:23;;;;;;;5.32;3.17;;;28.10;41.60;;;;;;5047328;28;20033;-76
2023/06/24 11:57:59;;;;;;;3.92;2.75;;;28.10;37.90;;;;;;5053636;28;20045;-78
2023/06/24 12:00:41;;;;;;;4.57;3.00;;;28.20;33.70;;;;;;5052690;28;20034;-77
2023/06/24 12:03:09;;;;;;;7.13;3.65;;;28.40;42.00;;;;;;5055949;28;20052;-80
2023/06/24 12:05:44;;;;;;;4.32;3.15;;;28.70;38.40;;;;;;5052076;28;20032;-77
2023/06/24 12:08:13;;;;;;;5.88;3.13;;;28.10;32.50;;;;;;5050100;28;20040;-79
2023/06/24 12:10:40;;;;;;;4.68;2.67;;;27.70;45.60;;;;;;5049009;28;20375;-81
2023/06/24 12:13:08;;;;;;;5.57;3.33;;;27.90;55.30;;;;;;5049368;28;20037;-76
2023/06/24 12:15:34;;;;;;;4.63;3.13;;;28.40;39.30;;;;;;5048825;28;20047;-75
2023/06/24 12:18:02;;;;;;;3.40;2.78;;;28.70;32.00;;;;;;5053040;28;20031;-78
2023/06/24 12:20:29;;;;;;;3.38;2.90;;;29.20;12.20;;;;;;5050186;28;20044;-76
2023/06/24 12:22:55;;;;;;;6.20;2.75;;;29.10;15.90;;;;;;5047904;28;20036;-78
2023/06/24 12:25:21;;;;;;;3.10;2.28;;;29.60;13.00;;;;;;5042766;28;20040;-78
2023/06/24 12:27:47;;;;;;;2.85;2.10;;;29.50;3.90;;;;;;5037438;28;20038;-74
2023/06/24 12:30:14;;;;;;;3.28;2.70;;;29.80;8.40;;;;;;5047622;28;20037;-80
2023/06/24 12:32:40;;;;;;;3.83;2.30;;;29.40;4.90;;;;;;5041470;28;20025;-80
2023/06/24 12:35:09;;;;;;;4.43;2.55;;;29.20;4.80;;;;;;5043409;28;20035;-79
2023/06/24 12:37:35;;;;;;;3.13;2.25;;;28.80;9.40;;;;;;5051585;28;20133;-79
2023/06/24 12:40:03;;;;;;;3.97;2.65;;;28.80;13.00;;;;;;5049318;28;20052;-79
2023/06/24 12:42:30;;;;;;;4.22;3.08;;;28.80;16.40;;;;;;5046388;28;20058;-78
2023/06/24 12:44:56;;;;;;;5.78;2.97;;;28.50;20.70;;;;;;5051910;28;20032;-75
2023/06/24 12:47:22;;;;;;;4.25;2.63;;;28.50;20.90;;;;;;5047366;28;20040;-74
2023/06/24 12:49:49;;;;;;;3.70;2.38;;;28.60;20.90;;;;;;5043526;28;20033;-75
2023/06/24 12:52:15;;;;;;;5.72;3.53;;;28.90;17.20;;;;;;5048227;28;20045;-75
2023/06/24 12:54:42;;;;;;;5.25;2.92;;;29.30;14.10;;;;;;5048157;28;20032;-76